Aérodrome :
LOGIN :

S'inscrire | Disclaimer

   EN    FR    IT 

 










Légende :    VFR   VFR Marginal   IFR   IFR Intensif   IFR Très Intensif
Visi : 
Plafond : 
>= 8 km
>= 3000ft
5 à 8 km
1000 à 3000 ft
1500m à 5 km
500 à 1000 ft
800 à 1500m
200 à 500 ft
< 800m
< 200 ft
Symboles :   Orages  Brouillard  Fortes neiges  Fortes précipitations  Vent > 20 kt
SIGMETs :   Divers  Orages  Givrage  Turbulence  Onde Orograph.  Cendres Volcan.






- Altitude de l'aérodrome : 202 ft
- Code IATA : LGW


EGKK - London Gatwick

DERNIER METAR :
  • 231420Z 33008KT 9999 FEW027 SCT037 10/03 Q1021

METARs EXPIRÉS :
  • 231350Z 32008KT 280V350 9999 SCT026 10/04 Q1021
  • 231320Z 33008KT 290V360 9999 FEW015 SCT046 09/05 Q1022
  • 231250Z 33010KT 290V360 9999 -RA SCT013 BKN029 08/06 Q1022
  • 231220Z 35009KT 320V020 9000 -SHRA SCT014 BKN030 09/05 Q1022
  • 231150Z 34010KT 290V360 9999 SCT021 BKN033 08/05 Q1022
  • 231120Z 34007KT 290V020 9999 FEW020 BKN033 09/04 Q1022
  • 231050Z 35008KT 310V020 9999 SCT020 BKN030 09/04 Q1022
  • 231020Z 35009KT 290V020 9999 SCT019 BKN026 09/04 Q1022
  • 230950Z 32006KT 9999 SCT013 BKN029 08/05 Q1022

TAF TAF EGKK
Valide du 23 à 12h jusqu'au 24 à 18h UTC


231056Z 2312/2418 35010KT 9999 SCT030
PROB30
TEMPO 2312/2316 8000 -RA BKN014



MET'MAP, la Météo Aéronautique d'un coup d'oeil ! - Copyright ORBIFLY Décembre 2007 - Disclaimer

ORBIFLY MET'MAP TEAM :

Programmation & Développement : Alexandra Zaïnal
Sur une idée originale de : Baudouin d'Aumeries
Soutien technique & logistique : Manuel Goepfert
Assistance : Marc-Olivier Méhu




SOURCES & CREDITS :

   NOAA